sensor_id;sensor_type;location;lat;lon;timestamp;P1;durP1;ratioP1;P2;durP2;ratioP2
18661;SDS011;61528;49.456;11.098;2022-12-07T00:01:33;6.90;;;6.20;;
18661;SDS011;61528;49.456;11.098;2022-12-07T00:04:00;7.63;;;6.30;;
18661;SDS011;61528;49.456;11.098;2022-12-07T00:06:33;7.43;;;6.40;;
18661;SDS011;61528;49.456;11.098;2022-12-07T00:09:00;7.43;;;6.17;;
18661;SDS011;61528;49.456;11.098;2022-12-07T00:11:26;7.27;;;6.47;;
18661;SDS011;61528;49.456;11.098;2022-12-07T00:13:56;7.37;;;5.93;;
18661;SDS011;61528;49.456;11.098;2022-12-07T00:16:23;7.93;;;6.70;;
18661;SDS011;61528;49.456;11.098;2022-12-07T00:18:51;6.73;;;6.03;;
18661;SDS011;61528;49.456;11.098;2022-12-07T00:21:38;7.33;;;6.53;;
18661;SDS011;61528;49.456;11.098;2022-12-07T00:24:04;7.80;;;6.47;;
18661;SDS011;61528;49.456;11.098;2022-12-07T00:26:37;7.53;;;6.47;;
18661;SDS011;61528;49.456;11.098;2022-12-07T00:29:05;9.07;;;6.97;;
18661;SDS011;61528;49.456;11.098;2022-12-07T00:31:32;9.37;;;6.90;;
18661;SDS011;61528;49.456;11.098;2022-12-07T00:34:00;7.93;;;6.37;;
18661;SDS011;61528;49.456;11.098;2022-12-07T00:36:26;8.00;;;6.87;;
18661;SDS011;61528;49.456;11.098;2022-12-07T00:38:53;8.83;;;6.90;;
18661;SDS011;61528;49.456;11.098;2022-12-07T00:41:21;7.33;;;6.53;;
18661;SDS011;61528;49.456;11.098;2022-12-07T00:43:48;7.93;;;6.67;;
18661;SDS011;61528;49.456;11.098;2022-12-07T00:46:15;8.57;;;7.00;;
18661;SDS011;61528;49.456;11.098;2022-12-07T00:48:42;9.43;;;6.97;;
18661;SDS011;61528;49.456;11.098;2022-12-07T00:51:09;8.97;;;7.07;;
18661;SDS011;61528;49.456;11.098;2022-12-07T00:53:37;7.90;;;6.93;;
18661;SDS011;61528;49.456;11.098;2022-12-07T00:56:07;9.37;;;7.53;;
18661;SDS011;61528;49.456;11.098;2022-12-07T00:58:34;8.07;;;7.27;;
18661;SDS011;61528;49.456;11.098;2022-12-07T01:01:01;8.97;;;7.27;;
18661;SDS011;61528;49.456;11.098;2022-12-07T01:03:28;9.30;;;7.10;;
18661;SDS011;61528;49.456;11.098;2022-12-07T01:05:55;8.40;;;6.93;;
18661;SDS011;61528;49.456;11.098;2022-12-07T01:08:22;8.73;;;7.23;;
18661;SDS011;61528;49.456;11.098;2022-12-07T01:10:48;9.07;;;7.50;;
18661;SDS011;61528;49.456;11.098;2022-12-07T01:13:15;9.20;;;7.43;;
18661;SDS011;61528;49.456;11.098;2022-12-07T01:15:42;8.47;;;7.63;;
18661;SDS011;61528;49.456;11.098;2022-12-07T01:18:09;8.57;;;6.80;;
18661;SDS011;61528;49.456;11.098;2022-12-07T01:20:35;9.47;;;7.90;;
18661;SDS011;61528;49.456;11.098;2022-12-07T01:23:01;10.37;;;7.73;;
18661;SDS011;61528;49.456;11.098;2022-12-07T01:25:28;9.17;;;7.30;;
18661;SDS011;61528;49.456;11.098;2022-12-07T01:27:54;9.23;;;7.47;;
18661;SDS011;61528;49.456;11.098;2022-12-07T01:30:20;9.23;;;7.40;;
18661;SDS011;61528;49.456;11.098;2022-12-07T01:32:47;11.30;;;7.93;;
18661;SDS011;61528;49.456;11.098;2022-12-07T01:35:15;8.93;;;8.00;;
18661;SDS011;61528;49.456;11.098;2022-12-07T01:37:42;8.30;;;7.30;;
18661;SDS011;61528;49.456;11.098;2022-12-07T01:40:09;9.23;;;7.47;;
18661;SDS011;61528;49.456;11.098;2022-12-07T01:42:36;10.80;;;7.50;;
18661;SDS011;61528;49.456;11.098;2022-12-07T01:47:49;10.50;;;8.03;;
18661;SDS011;61528;49.456;11.098;2022-12-07T01:50:16;10.30;;;8.33;;
18661;SDS011;61528;49.456;11.098;2022-12-07T01:52:43;10.03;;;8.00;;
18661;SDS011;61528;49.456;11.098;2022-12-07T01:55:11;12.10;;;8.90;;
18661;SDS011;61528;49.456;11.098;2022-12-07T01:57:43;10.23;;;8.43;;
18661;SDS011;61528;49.456;11.098;2022-12-07T02:00:11;10.47;;;8.57;;
18661;SDS011;61528;49.456;11.098;2022-12-07T02:02:41;10.63;;;8.80;;
18661;SDS011;61528;49.456;11.098;2022-12-07T02:05:09;11.90;;;8.90;;
18661;SDS011;61528;49.456;11.098;2022-12-07T02:07:36;10.40;;;7.90;;
18661;SDS011;61528;49.456;11.098;2022-12-07T02:10:14;9.50;;;8.07;;
18661;SDS011;61528;49.456;11.098;2022-12-07T02:12:40;11.27;;;9.13;;
18661;SDS011;61528;49.456;11.098;2022-12-07T02:15:06;10.70;;;8.10;;
18661;SDS011;61528;49.456;11.098;2022-12-07T02:28:30;10.77;;;8.53;;
18661;SDS011;61528;49.456;11.098;2022-12-07T02:30:58;11.73;;;8.37;;
18661;SDS011;61528;49.456;11.098;2022-12-07T02:33:49;11.57;;;8.57;;
18661;SDS011;61528;49.456;11.098;2022-12-07T02:36:17;12.17;;;8.43;;
18661;SDS011;61528;49.456;11.098;2022-12-07T02:38:55;12.73;;;9.13;;
18661;SDS011;61528;49.456;11.098;2022-12-07T02:41:31;14.60;;;10.83;;
18661;SDS011;61528;49.456;11.098;2022-12-07T02:43:59;14.90;;;10.43;;
18661;SDS011;61528;49.456;11.098;2022-12-07T02:46:33;11.87;;;8.80;;
18661;SDS011;61528;49.456;11.098;2022-12-07T02:49:04;14.93;;;9.90;;
18661;SDS011;61528;49.456;11.098;2022-12-07T02:51:31;13.47;;;9.43;;
18661;SDS011;61528;49.456;11.098;2022-12-07T02:53:58;12.40;;;9.23;;
18661;SDS011;61528;49.456;11.098;2022-12-07T02:56:37;11.87;;;9.33;;
18661;SDS011;61528;49.456;11.098;2022-12-07T03:10:41;12.33;;;9.63;;
18661;SDS011;61528;49.456;11.098;2022-12-07T03:15:12;15.00;;;10.30;;
18661;SDS011;61528;49.456;11.098;2022-12-07T03:17:40;14.27;;;9.73;;
18661;SDS011;61528;49.456;11.098;2022-12-07T03:20:09;13.57;;;9.87;;
18661;SDS011;61528;49.456;11.098;2022-12-07T03:22:37;15.80;;;10.57;;
18661;SDS011;61528;49.456;11.098;2022-12-07T03:25:08;14.13;;;10.23;;
18661;SDS011;61528;49.456;11.098;2022-12-07T03:30:27;15.57;;;10.80;;
18661;SDS011;61528;49.456;11.098;2022-12-07T03:38:00;12.93;;;9.77;;
18661;SDS011;61528;49.456;11.098;2022-12-07T03:42:58;14.13;;;10.10;;
18661;SDS011;61528;49.456;11.098;2022-12-07T03:45:39;14.10;;;10.30;;
18661;SDS011;61528;49.456;11.098;2022-12-07T03:48:20;14.13;;;9.73;;
18661;SDS011;61528;49.456;11.098;2022-12-07T03:50:50;14.33;;;10.17;;
18661;SDS011;61528;49.456;11.098;2022-12-07T03:53:20;12.80;;;9.47;;
18661;SDS011;61528;49.456;11.098;2022-12-07T03:55:48;15.30;;;10.93;;
18661;SDS011;61528;49.456;11.098;2022-12-07T03:58:15;16.33;;;10.47;;
18661;SDS011;61528;49.456;11.098;2022-12-07T04:00:42;15.07;;;10.40;;
18661;SDS011;61528;49.456;11.098;2022-12-07T04:03:10;14.43;;;9.93;;
18661;SDS011;61528;49.456;11.098;2022-12-07T04:05:37;15.90;;;10.97;;
18661;SDS011;61528;49.456;11.098;2022-12-07T04:08:04;16.60;;;10.80;;
18661;SDS011;61528;49.456;11.098;2022-12-07T04:10:31;14.57;;;10.40;;
18661;SDS011;61528;49.456;11.098;2022-12-07T04:12:57;16.80;;;10.53;;
18661;SDS011;61528;49.456;11.098;2022-12-07T04:15:23;17.77;;;11.20;;
18661;SDS011;61528;49.456;11.098;2022-12-07T04:17:49;15.33;;;11.00;;
18661;SDS011;61528;49.456;11.098;2022-12-07T04:20:16;16.47;;;11.43;;
18661;SDS011;61528;49.456;11.098;2022-12-07T04:22:42;17.43;;;11.83;;
18661;SDS011;61528;49.456;11.098;2022-12-07T04:25:08;16.20;;;11.37;;
18661;SDS011;61528;49.456;11.098;2022-12-07T04:27:35;16.13;;;11.10;;
18661;SDS011;61528;49.456;11.098;2022-12-07T04:30:01;18.80;;;11.77;;
18661;SDS011;61528;49.456;11.098;2022-12-07T04:32:27;16.03;;;11.60;;
18661;SDS011;61528;49.456;11.098;2022-12-07T04:34:54;19.03;;;11.80;;
18661;SDS011;61528;49.456;11.098;2022-12-07T04:37:20;17.30;;;11.30;;
18661;SDS011;61528;49.456;11.098;2022-12-07T04:39:46;20.17;;;12.97;;
18661;SDS011;61528;49.456;11.098;2022-12-07T04:42:12;16.80;;;11.60;;
18661;SDS011;61528;49.456;11.098;2022-12-07T04:44:38;16.00;;;11.43;;
18661;SDS011;61528;49.456;11.098;2022-12-07T04:47:05;19.93;;;12.87;;
18661;SDS011;61528;49.456;11.098;2022-12-07T04:49:31;17.20;;;11.33;;
18661;SDS011;61528;49.456;11.098;2022-12-07T04:51:58;18.33;;;11.80;;
18661;SDS011;61528;49.456;11.098;2022-12-07T04:54:24;17.50;;;11.67;;
18661;SDS011;61528;49.456;11.098;2022-12-07T04:56:50;16.67;;;11.30;;
18661;SDS011;61528;49.456;11.098;2022-12-07T04:59:17;19.47;;;11.50;;
18661;SDS011;61528;49.456;11.098;2022-12-07T05:01:43;16.67;;;10.70;;
18661;SDS011;61528;49.456;11.098;2022-12-07T05:04:09;17.57;;;11.33;;
18661;SDS011;61528;49.456;11.098;2022-12-07T05:06:36;16.70;;;11.87;;
18661;SDS011;61528;49.456;11.098;2022-12-07T05:09:02;18.80;;;11.67;;
18661;SDS011;61528;49.456;11.098;2022-12-07T05:11:29;18.63;;;12.13;;
18661;SDS011;61528;49.456;11.098;2022-12-07T05:16:37;18.17;;;11.00;;
18661;SDS011;61528;49.456;11.098;2022-12-07T05:19:04;17.87;;;11.73;;
18661;SDS011;61528;49.456;11.098;2022-12-07T05:21:30;17.73;;;12.37;;
18661;SDS011;61528;49.456;11.098;2022-12-07T05:23:57;20.80;;;12.20;;
18661;SDS011;61528;49.456;11.098;2022-12-07T05:26:23;19.80;;;11.60;;
18661;SDS011;61528;49.456;11.098;2022-12-07T05:28:54;19.13;;;12.50;;
18661;SDS011;61528;49.456;11.098;2022-12-07T05:31:21;20.07;;;12.37;;
18661;SDS011;61528;49.456;11.098;2022-12-07T05:33:47;18.30;;;12.83;;
18661;SDS011;61528;49.456;11.098;2022-12-07T05:36:16;20.47;;;12.23;;
18661;SDS011;61528;49.456;11.098;2022-12-07T05:38:43;18.63;;;11.77;;
18661;SDS011;61528;49.456;11.098;2022-12-07T05:41:11;19.07;;;12.30;;
18661;SDS011;61528;49.456;11.098;2022-12-07T05:43:58;18.30;;;11.90;;
18661;SDS011;61528;49.456;11.098;2022-12-07T05:46:24;20.80;;;12.70;;
18661;SDS011;61528;49.456;11.098;2022-12-07T05:48:51;20.87;;;13.13;;
18661;SDS011;61528;49.456;11.098;2022-12-07T05:51:18;18.63;;;11.90;;
18661;SDS011;61528;49.456;11.098;2022-12-07T05:53:44;22.77;;;13.57;;
18661;SDS011;61528;49.456;11.098;2022-12-07T05:56:11;21.03;;;13.00;;
18661;SDS011;61528;49.456;11.098;2022-12-07T05:58:37;21.03;;;12.50;;
18661;SDS011;61528;49.456;11.098;2022-12-07T06:01:22;22.37;;;12.87;;
18661;SDS011;61528;49.456;11.098;2022-12-07T06:06:35;20.63;;;13.10;;
18661;SDS011;61528;49.456;11.098;2022-12-07T06:09:02;22.43;;;12.80;;
18661;SDS011;61528;49.456;11.098;2022-12-07T06:11:28;22.63;;;14.00;;
18661;SDS011;61528;49.456;11.098;2022-12-07T06:14:13;24.17;;;13.63;;
18661;SDS011;61528;49.456;11.098;2022-12-07T06:16:40;21.83;;;13.63;;
18661;SDS011;61528;49.456;11.098;2022-12-07T06:19:07;20.77;;;12.50;;
18661;SDS011;61528;49.456;11.098;2022-12-07T06:21:33;22.77;;;13.33;;
18661;SDS011;61528;49.456;11.098;2022-12-07T06:23:59;23.37;;;13.63;;
18661;SDS011;61528;49.456;11.098;2022-12-07T06:26:26;21.37;;;12.90;;
18661;SDS011;61528;49.456;11.098;2022-12-07T06:28:52;26.37;;;15.43;;
18661;SDS011;61528;49.456;11.098;2022-12-07T06:31:18;20.80;;;12.63;;
18661;SDS011;61528;49.456;11.098;2022-12-07T06:33:45;23.20;;;14.27;;
18661;SDS011;61528;49.456;11.098;2022-12-07T06:36:11;22.33;;;13.63;;
18661;SDS011;61528;49.456;11.098;2022-12-07T06:38:37;23.77;;;14.90;;
18661;SDS011;61528;49.456;11.098;2022-12-07T06:41:04;21.20;;;12.93;;
18661;SDS011;61528;49.456;11.098;2022-12-07T06:48:46;20.70;;;12.90;;
18661;SDS011;61528;49.456;11.098;2022-12-07T06:51:12;22.13;;;13.57;;
18661;SDS011;61528;49.456;11.098;2022-12-07T06:53:39;21.13;;;13.20;;
18661;SDS011;61528;49.456;11.098;2022-12-07T06:56:05;20.07;;;13.23;;
18661;SDS011;61528;49.456;11.098;2022-12-07T06:58:32;22.20;;;13.87;;
18661;SDS011;61528;49.456;11.098;2022-12-07T07:00:58;22.90;;;13.23;;
18661;SDS011;61528;49.456;11.098;2022-12-07T07:03:25;22.27;;;12.57;;
18661;SDS011;61528;49.456;11.098;2022-12-07T07:05:51;23.50;;;15.00;;
18661;SDS011;61528;49.456;11.098;2022-12-07T07:08:18;23.80;;;14.57;;
18661;SDS011;61528;49.456;11.098;2022-12-07T07:10:44;26.60;;;14.23;;
18661;SDS011;61528;49.456;11.098;2022-12-07T07:13:10;22.60;;;13.60;;
18661;SDS011;61528;49.456;11.098;2022-12-07T07:15:38;20.83;;;14.17;;
18661;SDS011;61528;49.456;11.098;2022-12-07T07:18:04;24.40;;;13.77;;
18661;SDS011;61528;49.456;11.098;2022-12-07T07:20:32;21.97;;;13.30;;
18661;SDS011;61528;49.456;11.098;2022-12-07T07:22:58;23.70;;;13.03;;
18661;SDS011;61528;49.456;11.098;2022-12-07T07:25:26;21.33;;;12.23;;
18661;SDS011;61528;49.456;11.098;2022-12-07T07:27:52;21.10;;;13.03;;
18661;SDS011;61528;49.456;11.098;2022-12-07T07:30:19;24.57;;;13.50;;
18661;SDS011;61528;49.456;11.098;2022-12-07T07:32:45;23.20;;;14.07;;
18661;SDS011;61528;49.456;11.098;2022-12-07T07:35:11;22.03;;;13.67;;
18661;SDS011;61528;49.456;11.098;2022-12-07T07:37:39;21.60;;;13.53;;
18661;SDS011;61528;49.456;11.098;2022-12-07T07:40:06;23.43;;;14.10;;
18661;SDS011;61528;49.456;11.098;2022-12-07T07:42:34;26.63;;;14.77;;
18661;SDS011;61528;49.456;11.098;2022-12-07T07:45:01;24.57;;;14.67;;
18661;SDS011;61528;49.456;11.098;2022-12-07T07:47:28;24.13;;;15.57;;
18661;SDS011;61528;49.456;11.098;2022-12-07T07:49:55;23.07;;;13.67;;
18661;SDS011;61528;49.456;11.098;2022-12-07T07:52:23;22.03;;;14.10;;
18661;SDS011;61528;49.456;11.098;2022-12-07T07:54:51;21.17;;;13.37;;
18661;SDS011;61528;49.456;11.098;2022-12-07T07:57:17;21.93;;;13.77;;
18661;SDS011;61528;49.456;11.098;2022-12-07T07:59:44;21.03;;;13.53;;
18661;SDS011;61528;49.456;11.098;2022-12-07T08:02:15;19.67;;;12.67;;
18661;SDS011;61528;49.456;11.098;2022-12-07T08:04:43;26.73;;;16.73;;
18661;SDS011;61528;49.456;11.098;2022-12-07T08:07:10;24.40;;;15.30;;
18661;SDS011;61528;49.456;11.098;2022-12-07T08:09:37;22.63;;;14.87;;
18661;SDS011;61528;49.456;11.098;2022-12-07T08:12:03;24.97;;;14.83;;
18661;SDS011;61528;49.456;11.098;2022-12-07T08:14:31;23.83;;;13.20;;
18661;SDS011;61528;49.456;11.098;2022-12-07T08:16:57;23.40;;;14.17;;
18661;SDS011;61528;49.456;11.098;2022-12-07T08:19:24;26.73;;;14.70;;
18661;SDS011;61528;49.456;11.098;2022-12-07T08:21:50;27.23;;;14.77;;
18661;SDS011;61528;49.456;11.098;2022-12-07T08:24:17;23.37;;;14.27;;
18661;SDS011;61528;49.456;11.098;2022-12-07T08:26:44;25.57;;;14.60;;
18661;SDS011;61528;49.456;11.098;2022-12-07T08:29:10;25.53;;;13.80;;
18661;SDS011;61528;49.456;11.098;2022-12-07T08:31:36;23.83;;;13.50;;
18661;SDS011;61528;49.456;11.098;2022-12-07T08:34:06;23.67;;;14.43;;
18661;SDS011;61528;49.456;11.098;2022-12-07T08:36:32;22.70;;;13.80;;
18661;SDS011;61528;49.456;11.098;2022-12-07T08:38:59;25.43;;;14.47;;
18661;SDS011;61528;49.456;11.098;2022-12-07T08:41:25;25.83;;;13.67;;
18661;SDS011;61528;49.456;11.098;2022-12-07T08:43:51;23.80;;;13.83;;
18661;SDS011;61528;49.456;11.098;2022-12-07T08:46:25;21.50;;;13.20;;
18661;SDS011;61528;49.456;11.098;2022-12-07T08:48:55;21.80;;;13.50;;
18661;SDS011;61528;49.456;11.098;2022-12-07T08:51:22;23.20;;;12.87;;
18661;SDS011;61528;49.456;11.098;2022-12-07T08:53:50;18.97;;;11.43;;
18661;SDS011;61528;49.456;11.098;2022-12-07T08:56:19;22.93;;;12.80;;
18661;SDS011;61528;49.456;11.098;2022-12-07T08:58:46;22.30;;;13.43;;
18661;SDS011;61528;49.456;11.098;2022-12-07T09:01:13;20.83;;;12.10;;
18661;SDS011;61528;49.456;11.098;2022-12-07T09:03:39;21.83;;;12.57;;
18661;SDS011;61528;49.456;11.098;2022-12-07T09:06:06;20.70;;;11.90;;
18661;SDS011;61528;49.456;11.098;2022-12-07T09:11:36;20.27;;;11.70;;
18661;SDS011;61528;49.456;11.098;2022-12-07T09:16:49;18.70;;;10.60;;
18661;SDS011;61528;49.456;11.098;2022-12-07T09:19:15;19.13;;;11.53;;
18661;SDS011;61528;49.456;11.098;2022-12-07T09:21:42;15.80;;;10.30;;
18661;SDS011;61528;49.456;11.098;2022-12-07T09:24:08;18.83;;;11.10;;
18661;SDS011;61528;49.456;11.098;2022-12-07T09:26:37;17.67;;;10.37;;
18661;SDS011;61528;49.456;11.098;2022-12-07T09:29:05;17.43;;;10.40;;
18661;SDS011;61528;49.456;11.098;2022-12-07T09:34:17;17.13;;;10.87;;
18661;SDS011;61528;49.456;11.098;2022-12-07T09:36:44;20.10;;;11.10;;
18661;SDS011;61528;49.456;11.098;2022-12-07T09:39:11;16.00;;;9.53;;
18661;SDS011;61528;49.456;11.098;2022-12-07T09:41:39;17.33;;;10.67;;
18661;SDS011;61528;49.456;11.098;2022-12-07T09:44:11;15.80;;;9.80;;
18661;SDS011;61528;49.456;11.098;2022-12-07T09:46:39;18.00;;;9.37;;
18661;SDS011;61528;49.456;11.098;2022-12-07T09:49:18;15.37;;;9.40;;
18661;SDS011;61528;49.456;11.098;2022-12-07T09:51:45;15.90;;;10.30;;
18661;SDS011;61528;49.456;11.098;2022-12-07T09:54:16;15.53;;;10.30;;
18661;SDS011;61528;49.456;11.098;2022-12-07T09:56:43;14.23;;;9.17;;
18661;SDS011;61528;49.456;11.098;2022-12-07T09:59:12;15.83;;;10.50;;
18661;SDS011;61528;49.456;11.098;2022-12-07T10:01:39;13.87;;;8.87;;
18661;SDS011;61528;49.456;11.098;2022-12-07T10:04:13;15.07;;;9.37;;
18661;SDS011;61528;49.456;11.098;2022-12-07T10:06:43;15.13;;;9.37;;
18661;SDS011;61528;49.456;11.098;2022-12-07T10:09:11;16.33;;;10.00;;
18661;SDS011;61528;49.456;11.098;2022-12-07T10:14:26;16.10;;;9.77;;
18661;SDS011;61528;49.456;11.098;2022-12-07T10:16:54;14.63;;;9.50;;
18661;SDS011;61528;49.456;11.098;2022-12-07T10:19:24;15.83;;;9.40;;
18661;SDS011;61528;49.456;11.098;2022-12-07T10:22:04;15.87;;;10.13;;
18661;SDS011;61528;49.456;11.098;2022-12-07T10:24:31;14.50;;;9.73;;
18661;SDS011;61528;49.456;11.098;2022-12-07T10:26:58;13.77;;;9.50;;
18661;SDS011;61528;49.456;11.098;2022-12-07T10:29:37;16.73;;;10.07;;
18661;SDS011;61528;49.456;11.098;2022-12-07T10:32:05;15.23;;;10.20;;
18661;SDS011;61528;49.456;11.098;2022-12-07T10:34:33;18.23;;;11.83;;
18661;SDS011;61528;49.456;11.098;2022-12-07T10:37:33;17.83;;;10.67;;
18661;SDS011;61528;49.456;11.098;2022-12-07T10:39:54;18.10;;;10.43;;
18661;SDS011;61528;49.456;11.098;2022-12-07T10:42:27;16.30;;;9.97;;
18661;SDS011;61528;49.456;11.098;2022-12-07T10:45:08;13.90;;;9.60;;
18661;SDS011;61528;49.456;11.098;2022-12-07T10:55:53;15.40;;;10.43;;
18661;SDS011;61528;49.456;11.098;2022-12-07T11:01:23;14.07;;;9.40;;
18661;SDS011;61528;49.456;11.098;2022-12-07T11:06:24;15.17;;;9.57;;
18661;SDS011;61528;49.456;11.098;2022-12-07T11:11:38;13.70;;;9.60;;
18661;SDS011;61528;49.456;11.098;2022-12-07T11:16:42;15.53;;;9.60;;
18661;SDS011;61528;49.456;11.098;2022-12-07T11:37:34;16.87;;;10.20;;
18661;SDS011;61528;49.456;11.098;2022-12-07T11:40:15;16.30;;;10.67;;
18661;SDS011;61528;49.456;11.098;2022-12-07T11:42:49;16.73;;;10.03;;
18661;SDS011;61528;49.456;11.098;2022-12-07T11:45:27;15.90;;;10.70;;
18661;SDS011;61528;49.456;11.098;2022-12-07T11:48:10;16.00;;;10.70;;
18661;SDS011;61528;49.456;11.098;2022-12-07T11:50:41;16.83;;;10.00;;
18661;SDS011;61528;49.456;11.098;2022-12-07T11:58:04;15.83;;;10.53;;
18661;SDS011;61528;49.456;11.098;2022-12-07T12:00:36;15.40;;;9.83;;
18661;SDS011;61528;49.456;11.098;2022-12-07T12:03:09;14.93;;;10.53;;
18661;SDS011;61528;49.456;11.098;2022-12-07T12:05:37;16.57;;;10.87;;
18661;SDS011;61528;49.456;11.098;2022-12-07T12:10:58;18.07;;;10.70;;
18661;SDS011;61528;49.456;11.098;2022-12-07T12:21:17;14.40;;;9.27;;
18661;SDS011;61528;49.456;11.098;2022-12-07T12:23:48;14.73;;;9.40;;
18661;SDS011;61528;49.456;11.098;2022-12-07T12:26:21;15.80;;;10.40;;
18661;SDS011;61528;49.456;11.098;2022-12-07T12:33:54;15.10;;;10.03;;
18661;SDS011;61528;49.456;11.098;2022-12-07T12:38:48;14.37;;;9.67;;
18661;SDS011;61528;49.456;11.098;2022-12-07T12:51:50;16.43;;;10.37;;
18661;SDS011;61528;49.456;11.098;2022-12-07T12:59:31;17.40;;;9.77;;
18661;SDS011;61528;49.456;11.098;2022-12-07T13:04:34;13.27;;;9.60;;
18661;SDS011;61528;49.456;11.098;2022-12-07T13:07:03;14.57;;;9.97;;
18661;SDS011;61528;49.456;11.098;2022-12-07T13:09:30;14.20;;;10.07;;
18661;SDS011;61528;49.456;11.098;2022-12-07T13:12:04;15.70;;;9.97;;
18661;SDS011;61528;49.456;11.098;2022-12-07T13:17:54;16.20;;;10.03;;
18661;SDS011;61528;49.456;11.098;2022-12-07T13:19:55;15.03;;;10.63;;
18661;SDS011;61528;49.456;11.098;2022-12-07T13:27:29;14.63;;;10.33;;
18661;SDS011;61528;49.456;11.098;2022-12-07T13:29:56;19.17;;;11.73;;
18661;SDS011;61528;49.456;11.098;2022-12-07T13:32:27;14.13;;;9.60;;
18661;SDS011;61528;49.456;11.098;2022-12-07T13:34:53;15.87;;;10.30;;
18661;SDS011;61528;49.456;11.098;2022-12-07T13:37:21;15.33;;;10.20;;
18661;SDS011;61528;49.456;11.098;2022-12-07T13:42:24;14.27;;;10.10;;
18661;SDS011;61528;49.456;11.098;2022-12-07T13:44:51;15.67;;;10.27;;
18661;SDS011;61528;49.456;11.098;2022-12-07T13:49:51;18.17;;;11.50;;
18661;SDS011;61528;49.456;11.098;2022-12-07T13:52:23;15.83;;;11.13;;
18661;SDS011;61528;49.456;11.098;2022-12-07T13:57:49;16.30;;;9.80;;
18661;SDS011;61528;49.456;11.098;2022-12-07T14:00:17;12.23;;;8.70;;
18661;SDS011;61528;49.456;11.098;2022-12-07T14:02:54;10.70;;;9.03;;
18661;SDS011;61528;49.456;11.098;2022-12-07T14:07:58;14.07;;;10.20;;
18661;SDS011;61528;49.456;11.098;2022-12-07T14:10:26;14.60;;;10.47;;
18661;SDS011;61528;49.456;11.098;2022-12-07T14:12:53;15.73;;;10.83;;
18661;SDS011;61528;49.456;11.098;2022-12-07T14:15:20;17.40;;;11.70;;
18661;SDS011;61528;49.456;11.098;2022-12-07T14:17:51;17.90;;;11.77;;
18661;SDS011;61528;49.456;11.098;2022-12-07T14:20:30;16.10;;;11.13;;
18661;SDS011;61528;49.456;11.098;2022-12-07T14:22:57;17.50;;;10.33;;
18661;SDS011;61528;49.456;11.098;2022-12-07T14:25:24;17.37;;;11.60;;
18661;SDS011;61528;49.456;11.098;2022-12-07T14:27:56;15.83;;;10.30;;
18661;SDS011;61528;49.456;11.098;2022-12-07T14:30:24;15.80;;;9.50;;
18661;SDS011;61528;49.456;11.098;2022-12-07T14:32:52;12.40;;;9.07;;
18661;SDS011;61528;49.456;11.098;2022-12-07T14:35:19;12.73;;;8.67;;
18661;SDS011;61528;49.456;11.098;2022-12-07T14:37:47;11.63;;;7.87;;
18661;SDS011;61528;49.456;11.098;2022-12-07T14:40:15;13.90;;;8.40;;
18661;SDS011;61528;49.456;11.098;2022-12-07T14:42:41;12.77;;;8.97;;
18661;SDS011;61528;49.456;11.098;2022-12-07T14:45:18;11.30;;;8.20;;
18661;SDS011;61528;49.456;11.098;2022-12-07T14:47:45;11.33;;;7.47;;
18661;SDS011;61528;49.456;11.098;2022-12-07T14:50:15;10.93;;;8.13;;
18661;SDS011;61528;49.456;11.098;2022-12-07T14:52:43;13.93;;;9.30;;
18661;SDS011;61528;49.456;11.098;2022-12-07T14:55:13;10.90;;;8.07;;
18661;SDS011;61528;49.456;11.098;2022-12-07T14:57:40;11.63;;;7.90;;
18661;SDS011;61528;49.456;11.098;2022-12-07T15:00:06;13.70;;;9.60;;
18661;SDS011;61528;49.456;11.098;2022-12-07T15:02:33;11.97;;;7.57;;
18661;SDS011;61528;49.456;11.098;2022-12-07T15:04:59;16.37;;;10.63;;
18661;SDS011;61528;49.456;11.098;2022-12-07T15:07:25;13.43;;;8.10;;
18661;SDS011;61528;49.456;11.098;2022-12-07T15:09:52;10.30;;;7.00;;
18661;SDS011;61528;49.456;11.098;2022-12-07T15:12:18;10.17;;;7.10;;
18661;SDS011;61528;49.456;11.098;2022-12-07T15:14:44;11.33;;;8.00;;
18661;SDS011;61528;49.456;11.098;2022-12-07T15:17:11;12.33;;;9.10;;
18661;SDS011;61528;49.456;11.098;2022-12-07T15:19:38;11.47;;;8.70;;
18661;SDS011;61528;49.456;11.098;2022-12-07T15:22:04;15.67;;;9.03;;
18661;SDS011;61528;49.456;11.098;2022-12-07T15:24:31;17.33;;;9.93;;
18661;SDS011;61528;49.456;11.098;2022-12-07T15:26:59;15.77;;;10.30;;
18661;SDS011;61528;49.456;11.098;2022-12-07T15:29:25;17.23;;;10.77;;
18661;SDS011;61528;49.456;11.098;2022-12-07T15:31:55;16.67;;;11.50;;
18661;SDS011;61528;49.456;11.098;2022-12-07T15:34:22;17.33;;;10.90;;
18661;SDS011;61528;49.456;11.098;2022-12-07T15:36:49;14.80;;;10.20;;
18661;SDS011;61528;49.456;11.098;2022-12-07T15:39:24;14.87;;;10.10;;
18661;SDS011;61528;49.456;11.098;2022-12-07T15:41:50;16.17;;;10.63;;
18661;SDS011;61528;49.456;11.098;2022-12-07T15:44:17;15.63;;;9.93;;
18661;SDS011;61528;49.456;11.098;2022-12-07T15:47:02;16.27;;;10.57;;
18661;SDS011;61528;49.456;11.098;2022-12-07T15:49:29;14.63;;;10.17;;
18661;SDS011;61528;49.456;11.098;2022-12-07T15:51:56;18.90;;;11.63;;
18661;SDS011;61528;49.456;11.098;2022-12-07T15:54:26;18.83;;;11.83;;
18661;SDS011;61528;49.456;11.098;2022-12-07T15:56:53;18.03;;;11.27;;
18661;SDS011;61528;49.456;11.098;2022-12-07T15:59:20;17.10;;;11.30;;
18661;SDS011;61528;49.456;11.098;2022-12-07T16:01:46;20.20;;;12.10;;
18661;SDS011;61528;49.456;11.098;2022-12-07T16:04:12;18.03;;;11.20;;
18661;SDS011;61528;49.456;11.098;2022-12-07T16:06:39;16.17;;;10.57;;
18661;SDS011;61528;49.456;11.098;2022-12-07T16:09:05;16.90;;;10.80;;
18661;SDS011;61528;49.456;11.098;2022-12-07T16:11:32;16.27;;;10.90;;
18661;SDS011;61528;49.456;11.098;2022-12-07T16:13:58;18.57;;;11.93;;
18661;SDS011;61528;49.456;11.098;2022-12-07T16:16:25;20.27;;;11.50;;
18661;SDS011;61528;49.456;11.098;2022-12-07T16:18:51;19.80;;;12.60;;
18661;SDS011;61528;49.456;11.098;2022-12-07T16:21:18;18.30;;;11.90;;
18661;SDS011;61528;49.456;11.098;2022-12-07T16:23:44;16.73;;;10.80;;
18661;SDS011;61528;49.456;11.098;2022-12-07T16:26:12;20.63;;;11.60;;
18661;SDS011;61528;49.456;11.098;2022-12-07T16:28:38;15.00;;;10.83;;
18661;SDS011;61528;49.456;11.098;2022-12-07T16:31:08;15.67;;;10.40;;
18661;SDS011;61528;49.456;11.098;2022-12-07T16:33:36;17.67;;;11.13;;
18661;SDS011;61528;49.456;11.098;2022-12-07T16:36:04;18.17;;;11.97;;
18661;SDS011;61528;49.456;11.098;2022-12-07T16:38:32;17.70;;;11.30;;
18661;SDS011;61528;49.456;11.098;2022-12-07T16:40:58;17.70;;;11.20;;
18661;SDS011;61528;49.456;11.098;2022-12-07T16:43:24;16.00;;;10.63;;
18661;SDS011;61528;49.456;11.098;2022-12-07T16:45:50;17.57;;;11.33;;
18661;SDS011;61528;49.456;11.098;2022-12-07T16:48:17;17.17;;;11.63;;
18661;SDS011;61528;49.456;11.098;2022-12-07T16:50:44;17.47;;;11.70;;
18661;SDS011;61528;49.456;11.098;2022-12-07T16:53:11;17.73;;;12.07;;
18661;SDS011;61528;49.456;11.098;2022-12-07T16:55:41;17.30;;;11.50;;
18661;SDS011;61528;49.456;11.098;2022-12-07T16:58:08;21.20;;;12.80;;
18661;SDS011;61528;49.456;11.098;2022-12-07T17:00:35;21.03;;;12.83;;